Latest Weather Observations for Parafield

IDS60801

Issued at 8:31 am CDT Saturday 13 February 2016 (issued every 30 minutes, with the page automatically refreshed every 10 minutes)

About weather observations | Map of weather stations | Latest weather observations for SA | Other Formats
Station Details ID: 023013 Name: PARAFIELD AIRPORT Lat: -34.80 Lon: 138.63 Height: 9.5 m
Data from the previous 72 hours. | See also: Recent months at Parafield
Date/Time
CDT
Temp
°C
App
Temp
°C
Dew
Point
Rel
Hum
%
Delta-T
°C
Wind Press
QNH
hPa
Press
MSL
hPa
Rain
since 9 am
mm
Dir
 
Spd
km/h
Gust
km/h
Spd
kts
Gust
kts
13/08:30am 20.7 21.4 12.1 58 4.8 CALM 0 0 0 0 1012.6 1012.6 0.0
13/08:00am 18.3 19.0 12.3 68 3.3 CALM 0 0 0 0 1012.3 1012.3 0.0
13/07:30am 16.5 17.0 11.6 73 2.7 CALM 0 0 0 0 1012.2 1012.2 0.0
13/07:00am 15.9 16.3 11.3 74 2.5 CALM 0 0 0 0 1011.8 1011.8 0.0
13/06:30am 16.0 16.4 11.4 74 2.5 CALM 0 0 0 0 1011.4 1011.4 0.0
13/06:00am 16.0 16.0 11.2 73 2.6 NNE 2 6 1 3 1011.2 1011.2 0.0
13/05:30am 16.2 16.6 11.4 73 2.6 CALM 0 0 0 0 1011.1 1011.1 0.0
13/05:00am 17.1 16.2 11.2 68 3.2 NNE 7 9 4 5 1010.8 1010.8 0.0
13/04:30am 17.8 16.8 11.1 65 3.6 N 7 11 4 6 1010.5 1010.5 0.0
13/04:00am 16.7 16.8 11.4 71 2.9 NNE 2 9 1 5 1010.6 1010.6 0.0
13/03:30am 17.2 16.9 12.7 75 2.5 ESE 6 7 3 4 1010.9 1010.9 0.0
13/03:00am 16.1 16.5 11.3 73 2.6 CALM 0 0 0 0 1011.0 1011.0 0.0
13/02:30am 18.4 18.6 13.1 71 3.0 ESE 4 7 2 4 1010.9 1010.9 0.0
13/02:00am 18.4 17.5 10.5 60 4.2 ESE 6 9 3 5 1011.4 1011.4 0.0
13/01:30am 18.9 18.5 12.4 66 3.6 SE 6 7 3 4 1011.7 1011.7 0.0
13/01:00am 19.4 19.8 13.8 70 3.2 S 4 7 2 4 1011.9 1011.9 0.0
13/12:30am 18.8 17.8 13.4 71 3.1 SW 11 15 6 8 1012.0 1012.0 0.0
13/12:00am 18.2 18.6 11.3 64 3.8 CALM 0 0 0 0 1011.7 1011.7 0.0
 
Date/Time
CDT
Temp
°C
App
Temp
°C
Dew
Point
Rel
Hum
%
Delta-T
°C
Wind Press
QNH
hPa
Press
MSL
hPa
Rain
since 9 am
mm
Dir
 
Spd
km/h
Gust
km/h
Spd
kts
Gust
kts
12/11:30pm 19.4 18.8 10.4 56 4.9 N 4 6 2 3 1011.6 1011.6 0.0
12/11:00pm 21.5 20.4 11.8 54 5.4 N 9 9 5 5 1011.7 1011.7 0.0
12/10:30pm 21.1 19.7 12.3 57 5.0 NNE 11 11 6 6 1011.7 1011.7 0.0
12/10:00pm 20.8 20.6 13.7 64 4.1 NE 7 9 4 5 1011.9 1011.9 0.0
12/09:30pm 21.4 21.6 14.3 64 4.1 NNE 6 9 3 5 1012.0 1012.0 0.0
12/09:00pm 21.2 21.0 13.6 62 4.4 SSW 7 11 4 6 1012.2 1012.2 0.0
12/08:30pm 23.1 21.3 14.4 58 5.1 SW 17 22 9 12 1012.2 1012.2 0.0
12/08:00pm 24.5 20.9 11.8 45 7.2 SW 22 28 12 15 1012.0 1012.0 0.0
12/07:30pm 27.4 23.6 9.7 33 9.8 SW 20 28 11 15 1011.6 1011.6 0.0
12/07:00pm 30.2 26.2 9.1 27 11.8 SW 20 24 11 13 1011.2 1011.2 0.0
12/06:30pm 31.6 27.7 7.3 22 13.3 WSW 17 24 9 13 1010.8 1010.8 0.0
12/06:00pm 32.0 28.3 6.2 20 13.9 SW 15 28 8 15 1010.8 1010.8 0.0
12/05:30pm 32.4 28.1 3.4 16 14.9 WSW 15 20 8 11 1010.9 1010.9 0.0
12/05:00pm 32.5 28.7 5.9 19 14.2 W 15 20 8 11 1011.1 1011.1 0.0
12/04:30pm 33.2 29.2 6.5 19 14.5 W 17 24 9 13 1011.3 1011.3 0.0
12/04:00pm 32.5 28.7 5.9 19 14.2 WSW 15 19 8 10 1011.4 1011.4 0.0
12/03:30pm 32.3 28.4 8.5 23 13.3 WSW 19 24 10 13 1011.7 1011.7 0.0
12/03:00pm 31.8 27.6 7.5 22 13.3 WSW 19 26 10 14 1012.0 1012.0 0.0
12/02:30pm 31.1 27.6 11.0 29 11.6 WSW 20 26 11 14 1012.3 1012.3 0.0
12/02:00pm 30.9 27.0 5.3 20 13.5 W 15 24 8 13 1012.7 1012.7 0.0
12/01:30pm 30.5 27.4 11.5 31 11.0 WSW 19 24 10 13 1012.8 1012.8 0.0
12/01:00pm 30.1 27.2 13.0 35 10.1 WSW 20 26 11 14 1013.2 1013.2 0.0
12/12:30pm 29.3 27.4 13.1 37 9.6 WSW 15 20 8 11 1013.5 1013.5 0.0
12/12:00pm 29.6 28.2 12.1 34 10.2 SW 11 15 6 8 1013.9 1013.9 0.0
12/11:30am 28.1 26.9 11.6 36 9.5 WSW 9 13 5 7 1014.2 1014.2 0.0
12/11:00am 27.0 26.7 12.6 41 8.4 WNW 6 13 3 7 1014.3 1014.3 0.0
12/10:30am 25.5 24.9 12.4 44 7.5 WSW 7 11 4 6 1014.5 1014.5 0.0
12/10:00am 24.0 23.6 12.3 48 6.7 SW 6 11 3 6 1014.8 1014.8 0.0
12/09:30am 23.0 22.6 12.3 51 6.1 WSW 6 11 3 6 1015.1 1015.1 0.0
12/09:00am 21.6 21.0 12.2 55 5.3 WSW 7 11 4 6 1015.2 1015.2 0.0
12/08:30am 19.8 20.5 12.1 61 4.3 CALM 0 0 0 0 1015.2 1015.2 0.0
12/08:00am 18.1 18.6 11.7 66 3.5 CALM 0 0 0 0 1015.1 1015.1 0.0
12/07:30am 16.5 17.2 12.3 76 2.3 CALM 0 0 0 0 1015.1 1015.1 0.0
12/07:00am 14.4 14.5 10.0 75 2.3 CALM 0 0 0 0 1015.0 1015.0 0.0
12/06:30am 14.7 13.8 10.5 76 2.2 NNE 6 7 3 4 1014.7 1014.7 0.0
12/06:00am 15.3 14.5 10.9 75 2.3 NNE 6 9 3 5 1014.4 1014.4 0.0
12/05:30am 14.5 12.7 10.7 78 2.0 NE 11 13 6 7 1014.1 1014.1 0.0
12/05:00am 15.2 13.7 10.6 74 2.4 ENE 9 11 5 6 1014.1 1014.1 0.0
12/04:30am 16.2 15.3 10.5 69 3.0 SE 6 7 3 4 1014.0 1014.0 0.0
12/04:00am 15.6 14.3 11.2 75 2.4 S 9 11 5 6 1013.9 1013.9 0.0
12/03:30am 16.4 15.3 10.7 69 3.0 SE 7 9 4 5 1013.8 1013.8 0.0
12/03:00am 16.9 15.6 11.2 69 3.1 SSE 9 13 5 7 1014.1 1014.1 0.0
12/02:30am 17.6 15.8 10.9 65 3.6 ESE 11 17 6 9 1014.1 1014.1 0.0
12/02:00am 17.9 15.8 11.0 64 3.7 SE 13 17 7 9 1014.6 1014.6 0.0
12/01:30am 18.1 16.1 11.4 65 3.6 SE 13 19 7 10 1014.9 1014.9 0.0
12/01:00am 18.8 16.0 11.4 62 4.0 SE 17 24 9 13 1014.9 1014.9 0.0
12/12:30am 18.4 15.9 11.0 62 4.0 SSE 15 20 8 11 1015.0 1015.0 0.0
12/12:00am 18.9 15.6 11.5 62 4.1 SSE 20 30 11 16 1015.1 1015.1 0.0
 
Date/Time
CDT
Temp
°C
App
Temp
°C
Dew
Point
Rel
Hum
%
Delta-T
°C
Wind Press
QNH
hPa
Press
MSL
hPa
Rain
since 9 am
mm
Dir
 
Spd
km/h
Gust
km/h
Spd
kts
Gust
kts
11/11:30pm 19.1 15.8 11.7 62 4.1 SE 20 28 11 15 1015.2 1015.2 0.0
11/11:00pm 19.2 16.1 11.5 61 4.2 SSE 19 26 10 14 1015.4 1015.4 0.0
11/10:30pm 19.5 16.3 11.3 59 4.5 SE 19 24 10 13 1015.5 1015.5 0.0
11/10:00pm 20.0 16.3 11.5 58 4.7 SE 22 33 12 18 1015.5 1015.5 0.0
11/09:30pm 20.7 17.3 11.3 55 5.2 SE 20 30 11 16 1015.0 1015.0 0.0
11/09:00pm 21.4 19.3 11.1 52 5.7 SE 13 28 7 15 1014.5 1014.5 0.0
11/08:30pm 22.4 19.9 10.9 48 6.4 SE 15 26 8 14 1014.2 1014.2 0.0
11/08:00pm 24.6 20.7 10.8 42 7.7 SE 22 30 12 16 1013.8 1013.8 0.0
11/07:30pm 26.7 22.7 10.4 36 9.1 ESE 22 30 12 16 1013.6 1013.6 0.0
11/07:00pm 28.8 25.2 10.5 32 10.4 SE 20 32 11 17 1013.1 1013.1 0.0
11/06:30pm 30.4 26.5 9.3 27 11.8 SSE 20 28 11 15 1012.7 1012.7 0.0
11/06:00pm 31.3 27.4 9.5 26 12.3 S 20 30 11 16 1012.5 1012.5 0.0
11/05:30pm 31.6 27.6 9.2 25 12.6 S 20 30 11 16 1012.3 1012.3 0.0
11/05:00pm 32.7 28.1 9.5 24 13.2 SSW 24 35 13 19 1012.2 1012.2 0.0
11/04:30pm 32.6 28.9 9.4 24 13.2 SE 19 30 10 16 1012.2 1012.2 0.0
11/04:00pm 32.2 28.4 9.1 24 13.0 SE 19 28 10 15 1012.4 1012.4 0.0
11/03:30pm 32.4 28.9 8.6 23 13.3 SE 17 28 9 15 1012.8 1012.8 0.0
11/03:00pm 32.5 30.9 8.7 23 13.3 WSW 7 13 4 7 1012.9 1012.9 0.0
11/02:30pm 32.0 29.5 8.3 23 13.2 S 11 19 6 10 1013.1 1013.1 0.0
11/02:00pm 31.4 29.7 8.4 24 12.8 S 7 17 4 9 1013.5 1013.5 0.0
11/01:30pm 31.1 28.4 8.8 25 12.4 SE 13 22 7 12 1013.6 1013.6 0.0
11/01:00pm 30.7 28.8 9.0 26 12.1 SSE 9 20 5 11 1014.1 1014.1 0.0
11/12:30pm 29.6 27.4 9.2 28 11.4 S 11 19 6 10 1014.4 1014.4 0.0
11/12:00pm 28.4 26.5 9.2 30 10.6 SSE 9 15 5 8 1014.6 1014.6 0.0
11/11:30am 27.7 24.0 8.1 29 10.6 SE 17 22 9 12 1014.9 1014.9 0.0
11/11:00am 27.0 23.2 8.9 32 9.9 SE 19 26 10 14 1015.3 1015.3 0.0
11/10:30am 25.2 21.8 10.6 40 8.1 SE 19 26 10 14 1015.4 1015.4 0.0
11/10:00am 23.6 21.3 11.6 47 6.8 SE 15 20 8 11 1015.8 1015.8 0.0
11/09:30am 22.4 21.3 11.8 51 5.9 SSE 9 15 5 8 1016.1 1016.1 0.0
11/09:00am 21.2 21.0 11.8 55 5.2 SSE 4 9 2 5 1016.2 1016.2 0.0
11/08:30am 20.1 20.1 11.3 57 4.8 NE 2 7 1 4 1016.1 1016.1 0.0
11/08:00am 19.4 18.8 11.7 61 4.2 SE 6 7 3 4 1015.8 1015.8 0.0
11/07:30am 17.1 17.2 11.6 70 3.0 SE 2 7 1 4 1015.5 1015.5 0.0
11/07:00am 16.0 14.4 11.4 74 2.5 SE 11 15 6 8 1015.3 1015.3 0.0
11/06:30am 15.4 14.6 11.2 76 2.2 SE 6 7 3 4 1014.9 1014.9 0.0
11/06:00am 15.6 14.3 11.4 76 2.3 SSE 9 11 5 6 1014.6 1014.6 0.0
11/05:30am 17.4 15.5 11.9 70 3.0 SE 13 19 7 10 1014.4 1014.4 0.0
11/05:00am 17.7 14.7 11.9 69 3.2 ESE 19 26 10 14 1014.1 1014.1 0.0
11/04:30am 17.6 15.0 11.9 69 3.1 SE 17 20 9 11 1013.8 1013.8 0.0
11/04:00am 17.6 15.0 11.9 69 3.1 SE 17 22 9 12 1013.8 1013.8 0.0
11/03:30am 18.1 16.6 10.7 62 4.0 SE 9 13 5 7 1013.8 1013.8 0.0
11/03:00am 17.6 15.2 10.2 62 3.9 SE 13 19 7 10 1013.7 1013.7 0.0
11/02:30am 18.9 15.4 10.2 57 4.7 SE 19 24 10 13 1013.7 1013.7 0.0
11/02:00am 19.0 15.3 10.0 56 4.8 SE 20 28 11 15 1013.8 1013.8 0.0
11/01:30am 19.3 15.6 10.3 56 4.8 SE 20 30 11 16 1014.0 1014.0 0.0
11/01:00am 19.5 15.6 9.4 52 5.3 SE 20 26 11 14 1014.1 1014.1 0.0
11/12:30am 20.2 16.5 7.9 45 6.3 SE 17 26 9 14 1014.2 1014.2 0.0
11/12:00am 20.5 17.8 5.7 38 7.3 SSE 9 15 5 8 1014.2 1014.2 0.0
 
Date/Time
CDT
Temp
°C
App
Temp
°C
Dew
Point
Rel
Hum
%
Delta-T
°C
Wind Press
QNH
hPa
Press
MSL
hPa
Rain
since 9 am
mm
Dir
 
Spd
km/h
Gust
km/h
Spd
kts
Gust
kts
10/11:30pm 20.6 17.6 7.6 43 6.7 S 13 19 7 10 1014.1 1014.1 0.0
10/11:00pm 20.8 18.2 9.4 48 6.1 S 13 17 7 9 1014.1 1014.1 0.0
10/10:30pm 21.7 18.1 8.2 42 7.1 SSE 17 26 9 14 1014.1 1014.1 0.0
10/10:00pm 22.2 17.8 7.2 38 7.7 SSE 20 28 11 15 1014.0 1014.0 0.0
10/09:30pm 22.1 17.6 6.3 36 8.0 SSE 19 26 10 14 1013.7 1013.7 0.0
10/09:00pm 22.4 17.6 5.4 33 8.5 SSE 20 32 11 17 1013.5 1013.5 0.0
10/08:30pm 23.1 16.8 5.5 32 8.8 SE 28 37 15 20 1013.2 1013.2 0.0
10/08:00pm 24.2 19.1 7.8 35 8.7 SE 24 35 13 19 1012.9 1012.9 0.0
10/07:30pm 26.3 21.3 9.6 35 9.2 ESE 26 33 14 18 1012.4 1012.4 0.0
10/07:00pm 28.0 23.2 10.2 33 10.0 ESE 26 30 14 16 1012.0 1012.0 0.0
10/06:30pm 30.5 27.2 11.5 31 11.0 SE 20 26 11 14 1011.6 1011.6 0.0
10/06:00pm 31.4 28.6 11.2 29 11.7 ESE 17 22 9 12 1011.4 1011.4 0.0
10/05:30pm 32.5 29.4 11.6 28 12.3 SE 19 28 10 15 1011.1 1011.1 0.0
10/05:00pm 34.0 31.2 11.2 25 13.4 WSW 17 24 9 13 1011.0 1011.0 0.0
10/04:30pm 32.8 28.9 6.9 20 14.1 WSW 17 20 9 11 1011.2 1011.2 0.0
10/04:00pm 33.7 28.8 6.9 19 14.7 WSW 22 33 12 18 1011.3 1011.3 0.0
10/03:30pm 31.8 27.2 11.0 28 12.1 WSW 26 33 14 18 1011.6 1011.6 0.0
10/03:00pm 34.2 30.3 10.7 24 13.7 WSW 22 30 12 16 1011.7 1011.7 0.0
10/02:30pm 33.5 29.8 10.2 24 13.4 WSW 20 28 11 15 1012.1 1012.1 0.0
10/02:00pm 33.6 30.0 8.3 21 14.2 SW 17 28 9 15 1012.4 1012.4 0.0
10/01:30pm 32.7 29.1 6.8 20 14.1 WSW 15 24 8 13 1012.9 1012.9 0.0
10/01:00pm 32.7 30.8 6.8 20 14.1 ESE 6 13 3 7 1013.1 1013.1 0.0
10/12:30pm 31.7 29.1 6.0 20 13.7 S 9 17 5 9 1013.6 1013.6 0.0
10/12:00pm 31.3 28.4 6.4 21 13.4 SSE 11 20 6 11 1014.0 1014.0 0.0
10/11:30am 30.7 27.1 6.6 22 12.9 SSW 15 22 8 12 1014.5 1014.5 0.0
10/11:00am 30.4 26.2 5.6 21 13.1 SW 17 22 9 12 1014.6 1014.6 0.0
10/10:30am 28.4 24.9 5.3 23 12.0 SW 13 17 7 9 1014.8 1014.8 0.0
10/10:00am 26.4 22.8 6.9 29 10.3 WSW 15 20 8 11 1014.8 1014.8 0.0
10/09:30am 26.1 24.0 5.7 27 10.5 SW 6 9 3 5 1014.8 1014.8 0.0
10/09:00am 24.8 23.3 5.1 28 9.9 SSE 2 7 1 4 1014.8 1014.8 0.0

Other Formats:

Comma delimited format used in spreadsheet applications
http://www.bom.gov.au/fwo/IDS60801/IDS60801.95677.axf

JavaScript Object Notation format (JSON) in row-major order
http://www.bom.gov.au/fwo/IDS60801/IDS60801.95677.json